Time;durP1;ratioP1;P1;durP2;ratioP2;P2;SDS_P1;SDS_P2;PMS_P1;PMS_P2;Temp;Humidity;BMP_temperature;BMP_pressure;BME280_temperature;BME280_humidity;BME280_pressure;Samples;Min_cycle;Max_cycle;Signal;HPM_P1;HPM_P2
2023/03/26 00:00:42;;;;;;;7.68;5.20;;;;;;;16.39;46.11;92770.13;5009040;28;20033;-94
2023/03/26 00:03:10;;;;;;;6.97;4.82;;;;;;;16.37;46.17;92780.81;5026561;28;20167;-94
2023/03/26 00:05:37;;;;;;;8.25;5.13;;;;;;;16.40;46.08;92782.53;5025692;28;20032;-94
2023/03/26 00:08:07;;;;;;;7.13;5.43;;;;;;;16.43;45.79;92773.31;5010335;28;20040;-94
2023/03/26 00:10:35;;;;;;;6.78;4.65;;;;;;;16.39;46.29;92767.41;5044416;28;20031;-94
2023/03/26 00:13:01;;;;;;;6.60;5.03;;;;;;;16.32;46.47;92762.50;5014776;28;20061;-94
2023/03/26 00:15:28;;;;;;;6.35;4.80;;;;;;;16.30;46.50;92765.00;5026187;28;20032;-94
2023/03/26 00:17:55;;;;;;;6.70;4.88;;;;;;;16.35;46.66;92767.69;5045725;28;20049;-95
2023/03/26 00:20:24;;;;;;;5.80;4.75;;;;;;;16.35;46.18;92770.41;5011849;28;20028;-94
2023/03/26 00:22:49;;;;;;;7.43;4.75;;;;;;;16.33;45.82;92764.00;5044651;28;20569;-95
2023/03/26 00:25:15;;;;;;;5.43;4.65;;;;;;;16.35;46.41;92770.41;5010523;28;20036;-94
2023/03/26 00:27:48;;;;;;;6.07;4.70;;;;;;;16.33;46.12;92774.91;5011131;28;20781;-94
2023/03/26 00:30:14;;;;;;;8.15;4.88;;;;;;;16.36;46.18;92763.72;5009829;28;20470;-94
2023/03/26 00:32:39;;;;;;;6.72;4.82;;;;;;;16.39;46.51;92762.69;5011115;28;20021;-94
2023/03/26 00:35:05;;;;;;;6.65;5.00;;;;;;;16.34;46.21;92754.56;5041804;28;20025;-93
2023/03/26 00:37:32;;;;;;;5.68;4.20;;;;;;;16.35;46.16;92756.78;5043878;28;20391;-94
2023/03/26 00:40:01;;;;;;;4.93;4.28;;;;;;;16.34;45.93;92758.03;5010774;28;20025;-94
2023/03/26 00:42:27;;;;;;;7.20;4.97;;;;;;;16.36;46.30;92757.53;5045577;28;20025;-94
2023/03/26 00:44:56;;;;;;;5.25;4.60;;;;;;;16.32;46.39;92760.53;5012526;28;20055;-93
2023/03/26 00:47:23;;;;;;;5.55;4.53;;;;;;;16.36;46.27;92752.81;5011790;28;20056;-94
2023/03/26 00:49:56;;;;;;;4.90;3.97;;;;;;;16.36;46.33;92755.53;5016253;28;20040;-93
2023/03/26 00:52:22;;;;;;;5.30;4.18;;;;;;;16.33;46.38;92755.81;5025807;28;20062;-94
2023/03/26 00:54:51;;;;;;;6.22;4.22;;;;;;;16.33;46.32;92748.38;5042282;28;20033;-95
2023/03/26 00:57:17;;;;;;;6.68;4.45;;;;;;;16.32;46.28;92746.16;5009991;28;20029;-94
2023/03/26 00:59:42;;;;;;;6.07;4.15;;;;;;;16.34;46.18;92741.66;5025475;28;20120;-94
2023/03/26 01:02:11;;;;;;;5.68;4.53;;;;;;;16.30;46.14;92740.47;5008184;28;20017;-94
2023/03/26 01:04:36;;;;;;;5.65;4.22;;;;;;;16.26;46.53;92740.00;5009856;28;20032;-93
2023/03/26 01:07:08;;;;;;;5.40;4.13;;;;;;;16.26;46.31;92735.28;5008071;28;20025;-94
2023/03/26 01:09:35;;;;;;;5.30;3.83;;;;;;;16.37;46.43;92726.25;5009524;28;20017;-94
2023/03/26 01:12:02;;;;;;;6.72;4.50;;;;;;;16.29;46.35;92728.09;5009588;28;20390;-94
2023/03/26 01:14:28;;;;;;;6.32;4.03;;;;;;;16.26;46.25;92726.38;5042577;28;20029;-94
2023/03/26 01:17:01;;;;;;;5.50;4.10;;;;;;;16.39;46.33;92729.97;5024328;28;20013;-96
2023/03/26 01:19:43;;;;;;;5.60;4.70;;;;;;;16.36;46.10;92727.50;5020938;28;20025;-94
2023/03/26 01:22:10;;;;;;;5.00;3.72;;;;;;;16.33;46.06;92721.09;5008090;28;20115;-94
2023/03/26 01:24:37;;;;;;;7.38;4.35;;;;;;;16.35;46.23;92718.59;5005625;28;20040;-95
2023/03/26 01:27:08;;;;;;;5.60;3.72;;;;;;;16.34;46.02;92724.56;5021943;28;20021;-94
2023/03/26 01:29:46;;;;;;;6.10;4.57;;;;;;;16.34;45.93;92727.28;5035703;28;20029;-95
2023/03/26 01:32:17;;;;;;;7.15;4.57;;;;;;;16.36;46.26;92720.06;5003165;28;20120;-94
2023/03/26 01:34:59;;;;;;;5.45;4.10;;;;;;;16.40;46.18;92708.88;5033622;28;20017;-94
2023/03/26 01:37:58;;;;;;;4.95;3.90;;;;;;;16.30;46.06;92703.03;5017496;28;20028;-94
2023/03/26 01:40:37;;;;;;;6.03;3.85;;;;;;;16.33;45.87;92704.00;5020135;28;20021;-94
2023/03/26 01:43:05;;;;;;;5.90;4.40;;;;;;;16.25;46.56;92695.63;5035807;28;20513;-94
2023/03/26 01:45:33;;;;;;;5.75;4.25;;;;;;;16.25;46.29;92697.63;5033423;28;20037;-94
2023/03/26 01:47:58;;;;;;;5.43;4.10;;;;;;;16.24;46.20;92707.09;5001641;28;20067;-94
2023/03/26 01:50:24;;;;;;;5.93;3.70;;;;;;;16.31;46.26;92701.03;5001073;28;20029;-95
2023/03/26 01:52:50;;;;;;;4.20;3.80;;;;;;;16.27;46.05;92693.13;5001963;28;20029;-94
2023/03/26 01:55:15;;;;;;;4.75;3.45;;;;;;;16.25;46.18;92698.38;5003527;28;20021;-95
2023/03/26 01:57:46;;;;;;;4.63;3.70;;;;;;;16.25;46.10;92697.63;5002431;28;20132;-94
2023/03/26 02:00:19;;;;;;;4.18;3.50;;;;;;;16.27;46.25;92701.31;5019080;28;20091;-94
2023/03/26 02:03:08;;;;;;;5.25;3.90;;;;;;;16.29;46.22;92712.47;5033816;28;20033;-94
2023/03/26 02:05:40;;;;;;;4.60;3.50;;;;;;;16.26;46.48;92705.31;5001218;28;20475;-94
2023/03/26 02:08:21;;;;;;;4.55;3.70;;;;;;;16.29;46.34;92703.53;5014898;28;20021;-94
2023/03/26 02:10:47;;;;;;;;;;;;;;;16.31;46.03;92699.06;5000713;28;20515;-94
2023/03/26 02:13:12;;;;;;;4.13;3.40;;;;;;;16.30;46.21;92697.56;5015912;28;19959;-96
2023/03/26 02:15:52;;;;;;;4.80;3.53;;;;;;;16.29;46.36;92692.63;5002712;28;20013;-93
2023/03/26 02:18:22;;;;;;;3.97;3.08;;;;;;;16.24;46.33;92688.00;5004445;28;20054;-94
2023/03/26 02:20:48;;;;;;;4.05;3.10;;;;;;;16.28;45.98;92686.44;5003135;28;20064;-94
2023/03/26 02:23:14;;;;;;;4.63;3.40;;;;;;;16.25;46.38;92689.44;5002369;28;20029;-93
2023/03/26 02:25:41;;;;;;;4.25;3.05;;;;;;;16.31;46.25;92690.13;5016167;28;20126;-94
2023/03/26 02:28:07;;;;;;;5.50;3.47;;;;;;;16.27;46.35;92684.22;4982975;28;20362;-93
2023/03/26 02:30:33;;;;;;;6.57;3.53;;;;;;;16.26;46.35;92694.38;4981734;28;20368;-94
2023/03/26 02:32:58;;;;;;;4.32;3.38;;;;;;;16.29;46.23;92684.44;4981995;28;20029;-94
2023/03/26 02:35:24;;;;;;;4.82;3.67;;;;;;;16.22;46.53;92685.78;4981573;28;20376;-94
2023/03/26 02:37:49;;;;;;;3.80;3.40;;;;;;;16.24;46.30;92690.72;4981981;28;20032;-95
2023/03/26 02:40:17;;;;;;;4.65;3.40;;;;;;;16.25;46.33;92686.72;4982853;28;20017;-94
2023/03/26 02:42:42;;;;;;;5.15;3.28;;;;;;;16.26;46.57;92688.19;4983387;28;20029;-95
2023/03/26 02:45:07;;;;;;;4.70;3.10;;;;;;;16.28;46.34;92680.25;4997084;28;20048;-93
2023/03/26 02:47:33;;;;;;;4.72;3.30;;;;;;;16.24;46.30;92677.81;5019013;28;20116;-94
2023/03/26 02:49:58;;;;;;;5.00;3.10;;;;;;;16.24;46.31;92680.53;5002749;28;20024;-94
2023/03/26 02:52:25;;;;;;;3.65;3.08;;;;;;;16.28;46.35;92682.97;5003322;28;20024;-94
2023/03/26 02:54:50;;;;;;;3.78;3.35;;;;;;;16.23;46.19;92689.25;5039179;28;20059;-94
2023/03/26 02:57:17;;;;;;;4.78;3.50;;;;;;;16.28;46.32;92688.44;5004052;28;20359;-94
2023/03/26 02:59:45;;;;;;;5.13;3.22;;;;;;;16.28;46.22;92683.72;5041439;28;20025;-95
2023/03/26 03:02:12;;;;;;;3.65;3.22;;;;;;;16.33;46.11;92687.63;5007393;28;20064;-93
2023/03/26 03:04:37;;;;;;;4.65;3.47;;;;;;;16.26;46.47;92685.47;4965111;28;20089;-94
2023/03/26 03:07:04;;;;;;;5.90;3.78;;;;;;;16.24;46.61;92688.00;4981922;28;20034;-95
2023/03/26 03:09:30;;;;;;;3.72;3.25;;;;;;;16.22;46.47;92688.50;4950452;28;20034;-94
2023/03/26 03:11:55;;;;;;;4.07;3.42;;;;;;;16.22;46.09;92685.03;4952731;28;20114;-94
2023/03/26 03:14:26;;;;;;;3.35;2.90;;;;;;;16.25;46.23;92684.72;5001249;28;20108;-94
2023/03/26 03:16:55;;;;;;;3.80;3.28;;;;;;;16.21;46.46;92687.03;4968296;28;20034;-96
2023/03/26 03:19:20;;;;;;;6.18;3.33;;;;;;;16.27;46.33;92684.97;5000067;28;20041;-94
2023/03/26 03:21:45;;;;;;;3.72;3.08;;;;;;;16.22;46.28;92679.59;5000355;28;20031;-94
2023/03/26 03:24:12;;;;;;;3.88;3.47;;;;;;;16.25;46.10;92684.72;4981661;28;20034;-94
2023/03/26 03:26:40;;;;;;;3.72;2.90;;;;;;;16.28;46.24;92677.50;4962939;28;20044;-94
2023/03/26 03:29:05;;;;;;;4.93;3.30;;;;;;;16.26;46.40;92688.19;4959252;28;20484;-95
2023/03/26 03:31:30;;;;;;;5.72;3.30;;;;;;;16.22;46.33;92683.06;4956846;28;20054;-94
2023/03/26 03:33:56;;;;;;;3.55;3.20;;;;;;;16.21;46.23;92680.84;4957246;28;20695;-94
2023/03/26 03:36:21;;;;;;;4.15;3.70;;;;;;;16.18;46.56;92681.88;4957178;28;20459;-94
2023/03/26 03:38:48;;;;;;;4.13;3.10;;;;;;;16.24;46.46;92682.53;4955440;28;20373;-94
2023/03/26 03:41:14;;;;;;;3.60;2.90;;;;;;;16.25;46.24;92679.28;4964684;28;20473;-94
2023/03/26 03:43:40;;;;;;;3.80;2.90;;;;;;;16.25;46.16;92676.56;4999235;28;20021;-94
2023/03/26 03:46:05;;;;;;;3.97;2.83;;;;;;;16.26;46.52;92680.75;5000761;28;20017;-94
2023/03/26 03:48:32;;;;;;;4.45;3.00;;;;;;;16.36;46.04;92672.97;5001198;28;20047;-95
2023/03/26 03:50:58;;;;;;;3.40;2.97;;;;;;;16.21;46.20;92667.22;4999491;28;20021;-93
2023/03/26 03:53:25;;;;;;;3.80;3.25;;;;;;;16.21;46.32;92676.13;4999261;28;20021;-95
2023/03/26 03:55:54;;;;;;;4.05;2.90;;;;;;;16.21;46.01;92675.38;5016040;28;20131;-94
2023/03/26 03:58:23;;;;;;;4.40;3.10;;;;;;;16.21;46.03;92672.66;5016690;28;20021;-95
2023/03/26 04:00:49;;;;;;;4.43;3.17;;;;;;;16.17;46.40;92670.22;4994353;28;20040;-94
2023/03/26 04:03:15;;;;;;;3.95;3.03;;;;;;;16.17;46.48;92648.41;4984939;28;20032;-94
2023/03/26 04:05:42;;;;;;;3.88;2.92;;;;;;;16.16;46.56;92651.66;4999976;28;20061;-95
2023/03/26 04:08:08;;;;;;;3.30;2.55;;;;;;;16.18;46.55;92654.59;4983379;28;20021;-94
2023/03/26 04:10:33;;;;;;;3.00;2.70;;;;;;;16.15;46.33;92644.72;4985378;28;20356;-94
2023/03/26 04:12:59;;;;;;;3.42;2.80;;;;;;;16.17;46.27;92653.84;4987365;28;20080;-95
2023/03/26 04:15:24;;;;;;;4.13;2.85;;;;;;;16.26;46.42;92650.03;4987556;28;20032;-93
2023/03/26 04:17:50;;;;;;;3.88;3.03;;;;;;;16.19;46.20;92656.06;5004729;28;20254;-94
2023/03/26 04:20:16;;;;;;;3.70;2.72;;;;;;;16.19;46.77;92648.63;4989206;28;20025;-95
2023/03/26 04:22:43;;;;;;;3.08;2.60;;;;;;;16.19;46.50;92654.09;5023357;28;20033;-94
2023/03/26 04:25:10;;;;;;;3.65;2.67;;;;;;;16.17;46.23;92650.41;4993131;28;20072;-94
2023/03/26 04:27:36;;;;;;;2.85;2.47;;;;;;;16.16;46.57;92646.19;4992042;28;20056;-94
2023/03/26 04:30:01;;;;;;;4.63;3.03;;;;;;;16.19;46.63;92653.34;5008206;28;20027;-95
2023/03/26 04:32:28;;;;;;;3.53;2.90;;;;;;;16.15;46.52;92650.91;4992168;28;20044;-94
2023/03/26 04:34:55;;;;;;;3.17;2.53;;;;;;;16.15;46.62;92645.44;5009119;28;20084;-94
2023/03/26 04:37:27;;;;;;;3.33;2.70;;;;;;;16.14;46.60;92637.78;5008581;28;20028;-93
2023/03/26 04:39:53;;;;;;;3.35;2.47;;;;;;;16.13;46.58;92634.31;5025229;28;20093;-94
2023/03/26 04:42:19;;;;;;;3.13;2.42;;;;;;;16.15;46.58;92634.53;5039038;28;20017;-96
2023/03/26 04:44:49;;;;;;;3.08;2.70;;;;;;;16.12;46.59;92621.94;5006434;28;20025;-94
2023/03/26 04:47:15;;;;;;;3.60;2.67;;;;;;;16.13;46.46;92614.50;5007327;28;20089;-94
2023/03/26 04:49:41;;;;;;;2.83;2.42;;;;;;;16.14;46.36;92621.44;5008866;28;20037;-95
2023/03/26 04:52:09;;;;;;;4.78;2.67;;;;;;;16.11;46.60;92623.94;5007131;28;20021;-94
2023/03/26 04:54:35;;;;;;;4.35;2.50;;;;;;;16.11;46.71;92621.19;5008231;28;20033;-94
2023/03/26 04:57:02;;;;;;;4.00;2.50;;;;;;;16.13;46.53;92617.22;5007776;28;20025;-94
2023/03/26 04:59:33;;;;;;;3.20;2.72;;;;;;;16.13;46.30;92612.50;5007974;28;20041;-94
2023/03/26 05:02:02;;;;;;;4.75;2.55;;;;;;;16.11;46.38;92615.75;5007367;28;20606;-94
2023/03/26 05:04:30;;;;;;;2.92;2.63;;;;;;;16.16;46.29;92608.75;5022781;28;20033;-94
2023/03/26 05:06:56;;;;;;;3.47;2.55;;;;;;;16.16;46.44;92599.84;5034903;28;20021;-94
2023/03/26 05:09:22;;;;;;;3.92;2.30;;;;;;;16.15;46.50;92603.81;5003863;28;20027;-95
2023/03/26 05:11:49;;;;;;;4.15;2.45;;;;;;;16.16;46.69;92602.56;5037700;28;20115;-94
2023/03/26 05:14:15;;;;;;;4.05;2.38;;;;;;;16.11;46.31;92602.13;5039008;28;20028;-93
2023/03/26 05:16:41;;;;;;;3.58;2.88;;;;;;;16.10;46.80;92594.44;5021265;28;20040;-94
2023/03/26 05:19:07;;;;;;;3.45;2.72;;;;;;;16.12;46.82;92602.84;5001705;28;20025;-93
2023/03/26 05:21:33;;;;;;;2.47;2.28;;;;;;;16.10;46.59;92611.53;5002004;28;20103;-95
2023/03/26 05:23:58;;;;;;;4.10;2.42;;;;;;;16.11;46.41;92609.56;5001677;28;20067;-93
2023/03/26 05:26:24;;;;;;;2.95;2.50;;;;;;;16.11;46.75;92607.56;5034244;28;20375;-95
2023/03/26 05:28:49;;;;;;;3.88;2.70;;;;;;;16.08;46.32;92611.31;5000211;28;20441;-94
2023/03/26 05:31:17;;;;;;;3.63;2.78;;;;;;;16.09;46.40;92620.97;5033254;28;20032;-93
2023/03/26 05:33:43;;;;;;;3.85;2.42;;;;;;;16.10;46.26;92619.00;5032093;28;20028;-94
2023/03/26 05:36:14;;;;;;;4.00;2.55;;;;;;;16.21;46.26;92620.84;4998978;28;20032;-94
2023/03/26 05:38:41;;;;;;;2.55;2.35;;;;;;;16.24;46.11;92620.53;4999158;28;20018;-94
2023/03/26 05:41:08;;;;;;;4.95;3.10;;;;;;;16.19;46.33;92637.00;4998876;28;20075;-94
2023/03/26 05:43:34;;;;;;;2.45;2.10;;;;;;;16.23;46.25;92634.72;5015260;28;20394;-94
2023/03/26 05:45:59;;;;;;;2.92;2.20;;;;;;;16.26;46.22;92628.19;5014623;28;20021;-93
2023/03/26 05:48:25;;;;;;;4.57;2.22;;;;;;;16.16;46.42;92627.09;5014309;28;20020;-93
2023/03/26 05:50:52;;;;;;;2.63;1.95;;;;;;;16.12;46.18;92616.50;4997472;28;20106;-94
2023/03/26 05:53:17;;;;;;;4.05;2.70;;;;;;;16.17;46.10;92623.88;5014046;28;20489;-94
2023/03/26 05:55:49;;;;;;;2.72;2.17;;;;;;;16.17;46.36;92618.41;4998424;28;20123;-94
2023/03/26 05:58:15;;;;;;;3.53;2.53;;;;;;;16.15;46.26;92614.72;4999527;28;20029;-93
2023/03/26 06:00:40;;;;;;;2.60;2.03;;;;;;;16.22;46.08;92623.06;5030739;28;20035;-93
2023/03/26 06:03:11;;;;;;;3.83;2.50;;;;;;;16.23;46.05;92630.00;5014207;28;20071;-95
2023/03/26 06:05:37;;;;;;;3.20;2.47;;;;;;;16.26;46.05;92620.03;4998806;28;20021;-94
2023/03/26 06:08:02;;;;;;;2.35;2.03;;;;;;;16.24;46.20;92626.00;5030410;28;20270;-94
2023/03/26 06:10:28;;;;;;;2.47;2.13;;;;;;;16.22;46.58;92616.88;5026482;28;20091;-93
2023/03/26 06:12:54;;;;;;;3.22;2.15;;;;;;;16.15;46.24;92625.63;5030107;28;20033;-94
2023/03/26 06:15:20;;;;;;;3.78;2.33;;;;;;;16.21;46.22;92620.84;5030919;28;20021;-93
2023/03/26 06:17:46;;;;;;;3.30;2.33;;;;;;;16.19;46.40;92620.63;4997337;28;20021;-95
2023/03/26 06:20:11;;;;;;;2.20;1.90;;;;;;;16.17;46.41;92629.31;5013294;28;20036;-94
2023/03/26 06:22:37;;;;;;;2.75;2.42;;;;;;;16.23;46.44;92626.53;5029383;28;20324;-95
2023/03/26 06:25:03;;;;;;;2.85;2.50;;;;;;;16.24;46.34;92626.00;5029620;28;20084;-94
2023/03/26 06:27:29;;;;;;;3.38;2.28;;;;;;;16.16;46.36;92624.38;5029140;28;20032;-94
2023/03/26 06:29:54;;;;;;;3.72;2.17;;;;;;;16.19;46.55;92626.09;4996088;28;20088;-95
2023/03/26 06:32:20;;;;;;;2.78;2.20;;;;;;;16.22;46.22;92619.59;4996302;28;20028;-94
2023/03/26 06:34:45;;;;;;;3.33;2.03;;;;;;;16.25;46.16;92613.09;4996798;28;20029;-94
2023/03/26 06:37:11;;;;;;;3.10;2.20;;;;;;;16.20;46.08;92625.56;5028876;28;20033;-93
2023/03/26 06:39:36;;;;;;;4.32;2.05;;;;;;;16.22;46.18;92614.88;4995893;28;20017;-94
2023/03/26 06:42:02;;;;;;;3.20;2.30;;;;;;;16.19;46.33;92620.63;5009541;28;20028;-93
2023/03/26 06:44:28;;;;;;;2.90;2.15;;;;;;;16.23;46.21;92607.44;5012245;28;20032;-93
2023/03/26 06:46:54;;;;;;;3.05;2.20;;;;;;;16.16;46.19;92618.94;5012076;28;20025;-93
2023/03/26 06:49:19;;;;;;;3.92;2.45;;;;;;;16.21;46.67;92609.94;4996175;28;20048;-94
2023/03/26 06:51:46;;;;;;;2.72;2.08;;;;;;;16.21;46.28;92615.41;5028562;28;20481;-93
2023/03/26 06:54:12;;;;;;;3.10;2.10;;;;;;;16.20;46.16;92613.91;4986911;28;20626;-93
2023/03/26 06:56:38;;;;;;;2.50;1.90;;;;;;;16.21;46.12;92607.94;4955556;28;20419;-93
2023/03/26 06:59:03;;;;;;;2.92;2.20;;;;;;;16.18;46.29;92605.53;4955697;28;20029;-93
2023/03/26 07:01:29;;;;;;;3.88;2.25;;;;;;;16.17;46.22;92598.59;4955726;28;20037;-93
2023/03/26 07:03:54;;;;;;;2.95;1.88;;;;;;;16.18;46.34;92600.06;4958723;28;20041;-93
2023/03/26 07:06:20;;;;;;;2.70;1.92;;;;;;;16.19;46.16;92604.25;4958334;28;20558;-94
2023/03/26 07:08:45;;;;;;;2.88;1.90;;;;;;;16.22;46.33;92598.53;4974365;28;20034;-94
2023/03/26 07:11:11;;;;;;;3.33;2.13;;;;;;;16.22;46.08;92593.06;4974990;28;20033;-93
2023/03/26 07:13:38;;;;;;;2.85;1.80;;;;;;;16.27;46.19;92599.69;4974446;28;20038;-94
2023/03/26 07:16:05;;;;;;;2.47;2.20;;;;;;;16.29;46.06;92597.19;4970837;28;20034;-94
2023/03/26 07:18:31;;;;;;;2.95;2.03;;;;;;;16.34;46.46;92585.47;4975241;28;20026;-94
2023/03/26 07:20:57;;;;;;;2.33;1.73;;;;;;;16.36;46.27;92585.69;4990539;28;20546;-93
2023/03/26 07:23:22;;;;;;;2.92;1.90;;;;;;;16.29;46.28;92578.09;4990460;28;20026;-94
2023/03/26 07:25:48;;;;;;;2.33;1.98;;;;;;;16.27;46.38;92578.59;5005849;28;20041;-93
2023/03/26 07:28:35;;;;;;;3.50;2.55;;;;;;;16.28;46.07;92573.88;5027900;28;20575;-94
2023/03/26 07:31:23;;;;;;;2.63;2.05;;;;;;;16.28;46.24;92571.16;5028324;28;20014;-93
2023/03/26 07:34:03;;;;;;;2.17;1.83;;;;;;;16.25;46.32;92564.75;5011713;28;20119;-95
2023/03/26 07:36:33;;;;;;;2.38;1.77;;;;;;;16.31;46.13;92559.22;5011772;28;20150;-94
2023/03/26 07:39:04;;;;;;;2.13;1.85;;;;;;;16.25;46.18;92558.56;5011508;28;20099;-95
2023/03/26 07:41:44;;;;;;;1.70;1.45;;;;;;;16.30;46.12;92550.31;5011317;28;20350;-93
2023/03/26 07:44:19;;;;;;;2.17;1.77;;;;;;;16.28;46.14;92554.78;5031154;28;20029;-94
2023/03/26 07:46:46;;;;;;;2.30;1.90;;;;;;;16.25;46.03;92545.66;5030276;28;20679;-94
2023/03/26 07:49:12;;;;;;;2.05;1.73;;;;;;;16.25;46.17;92542.94;5031014;28;20021;-94
2023/03/26 07:51:38;;;;;;;2.28;1.90;;;;;;;16.29;46.40;92534.44;4998016;28;20112;-94
2023/03/26 07:54:04;;;;;;;1.92;1.73;;;;;;;16.25;45.99;92532.03;4998333;28;20029;-93
2023/03/26 07:56:33;;;;;;;2.47;1.90;;;;;;;16.33;46.35;92537.63;4998122;28;20032;-93
2023/03/26 07:59:17;;;;;;;2.70;2.00;;;;;;;16.31;46.30;92527.22;5014522;28;20036;-93
2023/03/26 08:01:51;;;;;;;2.83;1.73;;;;;;;16.29;46.06;92523.53;4999401;28;20040;-93
2023/03/26 08:04:37;;;;;;;2.70;2.08;;;;;;;16.32;46.25;92519.78;5031098;28;20127;-94
2023/03/26 08:07:06;;;;;;;2.17;1.60;;;;;;;16.39;46.34;92519.19;5014864;28;20028;-93
2023/03/26 08:09:37;;;;;;;2.30;1.90;;;;;;;16.33;45.93;92511.09;5030134;28;20116;-94
2023/03/26 08:12:36;;;;;;;2.40;1.70;;;;;;;16.38;46.17;92515.72;5013949;28;20024;-93
2023/03/26 08:15:20;;;;;;;3.03;1.80;;;;;;;16.36;46.20;92499.13;5000447;28;20383;-94
2023/03/26 08:17:52;;;;;;;2.60;1.50;;;;;;;16.39;46.13;92495.38;4998069;28;20017;-94
2023/03/26 08:20:20;;;;;;;2.08;1.85;;;;;;;16.38;45.90;92496.63;5013747;28;20092;-94
2023/03/26 08:22:51;;;;;;;1.90;1.30;;;;;;;16.38;46.42;92491.19;5029974;28;20033;-94
2023/03/26 08:25:23;;;;;;;1.90;1.67;;;;;;;16.32;46.11;92476.88;5014210;28;20049;-94
2023/03/26 08:28:07;;;;;;;1.25;1.15;;;;;;;16.35;46.19;92481.31;5029954;28;20052;-94
2023/03/26 08:30:33;;;;;;;1.98;1.50;;;;;;;16.39;46.14;92481.00;5013569;28;20174;-94
2023/03/26 08:33:03;;;;;;;2.53;1.30;;;;;;;16.40;46.20;92479.75;4997915;28;20115;-94
2023/03/26 08:35:29;;;;;;;3.80;1.75;;;;;;;16.35;46.16;92481.31;5014249;28;20032;-94
2023/03/26 08:37:55;;;;;;;2.08;1.48;;;;;;;16.36;46.30;92482.03;4997483;28;20333;-94
2023/03/26 08:40:29;;;;;;;2.38;1.85;;;;;;;16.40;45.99;92480.50;4997520;28;20478;-93
2023/03/26 08:43:44;;;;;;;2.17;1.73;;;;;;;16.39;46.08;92481.00;5014159;28;20020;-94
2023/03/26 08:46:34;;;;;;;2.70;1.85;;;;;;;16.34;46.16;92482.56;4998426;28;20061;-93
2023/03/26 08:49:29;;;;;;;2.67;1.73;;;;;;;16.33;46.40;92480.34;5026549;28;20025;-94
2023/03/26 08:52:03;;;;;;;1.83;1.20;;;;;;;16.36;46.12;92477.31;5003110;28;20266;-93
2023/03/26 08:54:38;;;;;;;2.40;1.58;;;;;;;16.33;46.51;92467.44;5013206;28;20037;-93
2023/03/26 08:57:22;;;;;;;2.42;1.90;;;;;;;16.31;46.61;92461.03;5029435;28;20036;-92
2023/03/26 09:00:25;;;;;;;2.40;1.50;;;;;;;16.35;46.12;92451.31;5028910;28;20028;-94
2023/03/26 09:03:27;;;;;;;2.10;1.50;;;;;;;16.30;46.54;92448.66;5013449;28;20425;-95
2023/03/26 09:06:21;;;;;;;2.35;1.80;;;;;;;16.31;46.49;92444.69;5029144;28;20595;-94
2023/03/26 09:09:24;;;;;;;2.72;1.60;;;;;;;16.33;46.53;92442.16;5029588;28;20029;-94
2023/03/26 09:12:11;;;;;;;1.30;1.10;;;;;;;16.36;46.15;92433.69;5029409;28;20460;-94
2023/03/26 09:15:05;;;;;;;2.25;1.50;;;;;;;16.30;46.02;92432.28;5015830;28;20222;-94
2023/03/26 09:18:05;;;;;;;4.13;1.70;;;;;;;16.33;45.81;92420.34;5029772;28;20233;-93
2023/03/26 09:20:58;;;;;;;4.70;1.50;;;;;;;16.26;45.12;92415.50;5034955;28;20028;-95
2023/03/26 09:23:48;;;;;;;3.70;1.75;;;;;;;16.23;44.91;92411.84;5015009;28;20244;-94
2023/03/26 09:26:26;;;;;;;3.60;1.30;;;;;;;16.22;45.06;92407.66;5029061;28;20076;-93
2023/03/26 09:29:01;;;;;;;2.97;1.60;;;;;;;16.23;44.71;92400.19;5028580;28;20033;-94
2023/03/26 09:31:55;;;;;;;5.35;1.83;;;;;;;16.27;45.24;92395.16;5012542;28;20115;-94
2023/03/26 09:34:46;;;;;;;2.83;1.60;;;;;;;16.30;45.35;92383.22;5029117;28;20033;-94
2023/03/26 09:37:30;;;;;;;1.63;1.30;;;;;;;16.31;45.47;92390.88;5029334;28;20070;-94
2023/03/26 09:40:17;;;;;;;2.72;1.60;;;;;;;16.33;45.53;92380.19;5029132;28;20044;-94
2023/03/26 09:42:43;;;;;;;3.53;1.90;;;;;;;16.33;45.92;92373.97;5013112;28;20053;-93
2023/03/26 09:45:15;;;;;;;2.63;1.70;;;;;;;16.31;45.90;92369.06;5009622;28;20045;-94
2023/03/26 09:48:04;;;;;;;3.40;1.95;;;;;;;16.35;45.66;92371.47;5025723;28;20022;-93
2023/03/26 09:50:54;;;;;;;2.90;1.50;;;;;;;16.31;46.19;92369.06;5025394;28;20250;-94
2023/03/26 09:53:41;;;;;;;3.03;1.77;;;;;;;16.31;45.92;92369.06;5010351;28;20487;-93
2023/03/26 09:56:17;;;;;;;2.58;1.67;;;;;;;16.34;46.05;92364.53;5028492;28;20080;-95
2023/03/26 09:59:11;;;;;;;2.83;1.83;;;;;;;16.35;46.10;92344.94;5029446;28;20025;-94
2023/03/26 10:01:43;;;;;;;1.40;1.30;;;;;;;16.36;46.26;92338.22;5014527;28;20428;-94
2023/03/26 10:04:32;;;;;;;1.88;1.60;;;;;;;16.38;46.03;92338.44;5028486;28;20104;-94
2023/03/26 10:07:24;;;;;;;1.83;1.30;;;;;;;16.33;45.89;92331.09;5028716;28;20074;-94
2023/03/26 10:09:59;;;;;;;2.28;1.38;;;;;;;16.35;46.11;92330.56;5014091;28;20052;-93
2023/03/26 10:12:39;;;;;;;1.98;1.52;;;;;;;16.35;46.05;92325.09;5013102;28;20041;-94
2023/03/26 10:15:23;;;;;;;2.63;1.58;;;;;;;16.37;45.86;92314.41;5013614;28;20151;-93
2023/03/26 10:17:59;;;;;;;1.67;1.40;;;;;;;16.42;46.15;92327.22;5012496;28;20061;-95
2023/03/26 10:20:27;;;;;;;1.42;1.30;;;;;;;16.42;45.78;92317.03;5028205;28;20470;-94
2023/03/26 10:23:21;;;;;;;2.10;1.40;;;;;;;16.37;46.15;92308.97;5028641;28;20381;-94
2023/03/26 10:26:03;;;;;;;1.95;1.35;;;;;;;16.38;45.95;92289.34;5027818;28;20041;-93
2023/03/26 10:28:41;;;;;;;2.58;1.30;;;;;;;16.34;46.41;92293.63;5011329;28;20536;-93
2023/03/26 10:31:29;;;;;;;2.22;1.02;;;;;;;16.41;45.97;92290.28;5012398;28;20029;-94
2023/03/26 10:34:14;;;;;;;1.60;1.20;;;;;;;16.38;45.85;92283.88;5028566;28;20123;-94
2023/03/26 10:36:54;;;;;;;2.00;1.30;;;;;;;16.41;46.00;92284.84;5031148;28;20037;-94
2023/03/26 10:39:26;;;;;;;1.58;1.25;;;;;;;16.39;46.22;92274.44;5032373;28;20029;-94
2023/03/26 10:42:06;;;;;;;1.08;0.90;;;;;;;16.34;45.92;92277.28;5016345;28;20040;-94
2023/03/26 10:44:47;;;;;;;3.60;1.27;;;;;;;16.36;46.13;92280.22;5031824;28;20033;-94
2023/03/26 10:47:28;;;;;;;2.05;1.50;;;;;;;16.37;46.06;92274.25;5031915;28;20429;-93
2023/03/26 10:50:00;;;;;;;;;;;;;;;16.34;46.28;92277.28;5016396;28;20037;-93
2023/03/26 10:52:33;;;;;;;1.42;1.17;;;;;;;16.39;46.01;92268.25;5031420;28;19912;-93
2023/03/26 10:55:17;;;;;;;1.98;1.35;;;;;;;16.38;45.87;92250.44;5000298;28;20459;-94
2023/03/26 10:57:44;;;;;;;1.92;1.50;;;;;;;16.38;46.03;92237.53;4999791;28;20033;-94
2023/03/26 11:00:22;;;;;;;2.47;1.35;;;;;;;16.31;46.09;92229.97;5014867;28;20031;-94
2023/03/26 11:02:59;;;;;;;1.38;1.20;;;;;;;16.33;46.07;92235.63;5016591;28;20025;-94
2023/03/26 11:05:37;;;;;;;2.13;1.42;;;;;;;16.34;46.32;92228.91;5014804;28;20032;-95
2023/03/26 11:08:38;;;;;;;3.05;1.50;;;;;;;16.34;46.12;92234.38;5015249;28;20028;-94
2023/03/26 11:11:24;;;;;;;1.48;1.10;;;;;;;16.36;45.89;92239.31;5014937;28;20025;-95
2023/03/26 11:13:59;;;;;;;1.73;1.08;;;;;;;16.33;46.00;92241.09;5015520;28;20056;-94
2023/03/26 11:16:31;;;;;;;1.23;1.10;;;;;;;16.34;46.12;92237.09;5015376;28;20021;-93
2023/03/26 11:19:01;;;;;;;1.90;1.30;;;;;;;16.43;46.07;92241.41;4999411;28;20037;-93
2023/03/26 11:21:36;;;;;;;2.58;1.30;;;;;;;16.41;45.82;92249.38;5014906;28;20025;-93
2023/03/26 11:24:19;;;;;;;1.67;1.35;;;;;;;16.38;45.91;92247.69;5014848;28;20758;-94
2023/03/26 11:26:55;;;;;;;3.15;1.23;;;;;;;16.36;46.38;92261.13;4993768;28;20037;-94
2023/03/26 11:29:39;;;;;;;3.25;1.42;;;;;;;16.34;46.07;92256.19;4970514;28;20026;-94
2023/03/26 11:32:09;;;;;;;2.42;1.38;;;;;;;16.37;45.95;92257.88;4970282;28;20038;-94
2023/03/26 11:34:39;;;;;;;1.88;1.40;;;;;;;16.36;46.03;92248.22;4970537;28;20073;-94
2023/03/26 11:37:11;;;;;;;1.90;1.33;;;;;;;16.31;46.19;92246.34;4939062;28;20037;-94
2023/03/26 11:39:43;;;;;;;1.73;1.27;;;;;;;16.35;45.83;92243.28;4939296;28;20403;-94
2023/03/26 11:42:10;;;;;;;1.55;1.10;;;;;;;16.37;46.10;92251.69;4955034;28;20058;-94
2023/03/26 11:44:38;;;;;;;1.42;1.17;;;;;;;16.36;46.12;92258.41;4938704;28;20042;-94
2023/03/26 11:47:08;;;;;;;1.55;1.20;;;;;;;16.36;46.05;92255.66;4953814;28;20027;-93
2023/03/26 11:49:34;;;;;;;1.55;1.23;;;;;;;16.33;46.05;92252.00;4954813;28;20579;-93
2023/03/26 11:52:00;;;;;;;1.58;1.10;;;;;;;16.37;45.87;92255.16;4970589;28;20031;-94
2023/03/26 11:54:26;;;;;;;1.63;1.20;;;;;;;16.34;45.93;92255.47;4970745;28;20114;-95